createdAt,value
2022-08-24T00:01:09.041Z,6.20
2022-08-24T00:03:42.900Z,6.20
2022-08-24T00:06:19.221Z,6.10
2022-08-24T00:08:52.656Z,6.10
2022-08-24T00:11:24.795Z,6.30
2022-08-24T00:13:57.446Z,6.40
2022-08-24T00:16:29.937Z,6.70
2022-08-24T00:19:02.045Z,6.20
2022-08-24T00:21:35.066Z,6.00
2022-08-24T00:24:07.987Z,6.30
2022-08-24T00:26:40.753Z,6.90
2022-08-24T00:29:14.702Z,6.10
2022-08-24T00:31:47.255Z,6.50
2022-08-24T00:34:20.052Z,6.30
2022-08-24T00:36:52.232Z,6.00
2022-08-24T00:39:24.775Z,6.10
2022-08-24T00:41:57.136Z,6.40
2022-08-24T00:44:30.406Z,6.50
2022-08-24T00:47:06.780Z,6.50
2022-08-24T00:49:43.463Z,6.40
2022-08-24T00:52:19.731Z,6.90
2022-08-24T00:54:56.531Z,6.20
2022-08-24T00:57:31.779Z,6.70
2022-08-24T01:00:09.852Z,6.70
2022-08-24T01:02:45.674Z,6.40
2022-08-24T01:05:19.462Z,6.70
2022-08-24T01:07:51.637Z,6.30
2022-08-24T01:10:28.049Z,6.60
2022-08-24T01:13:03.281Z,6.70
2022-08-24T01:15:42.857Z,6.70
2022-08-24T01:18:37.063Z,6.80
2022-08-24T01:21:15.889Z,6.60
2022-08-24T01:23:50.037Z,6.80
2022-08-24T01:26:27.193Z,7.30
2022-08-24T01:29:04.849Z,6.70
2022-08-24T01:31:38.923Z,7.00
2022-08-24T01:34:11.307Z,7.00
2022-08-24T01:36:46.565Z,6.70
2022-08-24T01:41:55.920Z,6.60
2022-08-24T01:44:34.286Z,6.90
2022-08-24T01:47:09.047Z,6.70
2022-08-24T01:49:43.815Z,7.10
2022-08-24T01:52:19.105Z,6.80
2022-08-24T01:54:51.242Z,6.30
2022-08-24T01:57:27.549Z,6.60
2022-08-24T02:00:02.209Z,6.80
2022-08-24T02:02:45.841Z,6.90
2022-08-24T02:05:18.719Z,6.50
2022-08-24T02:07:51.161Z,6.60
2022-08-24T02:10:23.742Z,7.10
2022-08-24T02:12:59.533Z,6.90
2022-08-24T02:15:36.421Z,6.50
2022-08-24T02:18:14.885Z,6.70
2022-08-24T02:20:48.317Z,6.60
2022-08-24T02:23:21.345Z,7.30
2022-08-24T02:25:53.947Z,7.30
2022-08-24T02:28:26.446Z,7.40
2022-08-24T02:30:58.802Z,7.10
2022-08-24T02:33:31.203Z,7.50
2022-08-24T02:36:04.094Z,7.30
2022-08-24T02:38:42.595Z,7.60
2022-08-24T02:41:19.125Z,7.90
2022-08-24T02:43:51.679Z,7.90
2022-08-24T02:46:26.859Z,7.70
2022-08-24T02:49:10.887Z,7.50
2022-08-24T02:51:48.494Z,7.10
2022-08-24T02:54:24.963Z,7.50
2022-08-24T02:56:57.480Z,8.20
2022-08-24T02:59:30.132Z,6.80
2022-08-24T03:02:03.122Z,7.20
2022-08-24T03:04:35.879Z,7.50
2022-08-24T03:07:08.779Z,7.40
2022-08-24T03:09:40.846Z,7.20
2022-08-24T03:12:13.239Z,7.60
2022-08-24T03:14:45.295Z,7.40
2022-08-24T03:17:17.474Z,7.10
2022-08-24T03:19:49.549Z,7.00
2022-08-24T03:22:22.083Z,7.10
2022-08-24T03:24:54.202Z,7.60
2022-08-24T03:27:27.017Z,7.40
2022-08-24T03:29:59.244Z,6.60
2022-08-24T03:32:32.320Z,7.30
2022-08-24T03:35:04.707Z,7.30
2022-08-24T03:37:37.573Z,7.00
2022-08-24T03:40:23.177Z,7.00
2022-08-24T03:42:58.703Z,7.50
2022-08-24T03:45:32.379Z,7.70
2022-08-24T03:48:05.447Z,7.50
2022-08-24T03:50:38.122Z,8.40
2022-08-24T03:53:10.176Z,8.10
2022-08-24T03:55:42.270Z,7.60
2022-08-24T03:58:14.619Z,7.50
2022-08-24T04:00:47.316Z,7.20
2022-08-24T04:03:19.604Z,7.30
2022-08-24T04:05:51.772Z,7.20
2022-08-24T04:08:25.591Z,7.50
2022-08-24T04:10:57.721Z,8.00
2022-08-24T04:13:32.199Z,7.70
2022-08-24T04:16:09.684Z,7.60
2022-08-24T04:18:42.636Z,7.40
2022-08-24T04:21:21.992Z,8.40
2022-08-24T04:23:55.096Z,7.70
2022-08-24T04:26:44.834Z,8.60
2022-08-24T04:29:21.189Z,7.70
2022-08-24T04:31:59.118Z,7.80
2022-08-24T04:34:31.489Z,7.80
2022-08-24T04:37:04.756Z,7.80
2022-08-24T04:39:42.592Z,7.50
2022-08-24T04:42:37.556Z,7.90
2022-08-24T04:45:11.868Z,7.10
2022-08-24T04:47:44.722Z,7.60
2022-08-24T04:50:17.316Z,7.40
2022-08-24T04:52:56.431Z,7.40
2022-08-24T04:55:29.048Z,7.70
2022-08-24T04:58:02.544Z,7.20
2022-08-24T05:00:34.694Z,7.20
2022-08-24T05:03:07.581Z,7.40
2022-08-24T05:05:43.103Z,7.10
2022-08-24T05:08:16.105Z,7.30
2022-08-24T05:10:51.071Z,7.90
2022-08-24T05:13:23.709Z,7.20
2022-08-24T05:15:55.855Z,7.10
2022-08-24T05:18:30.050Z,7.90
2022-08-24T05:21:02.548Z,7.30
2022-08-24T05:23:35.392Z,7.50
2022-08-24T05:26:10.586Z,7.40
2022-08-24T05:28:43.733Z,7.80
2022-08-24T05:31:19.985Z,7.30
2022-08-24T05:33:52.643Z,8.00
2022-08-24T05:36:27.052Z,7.80
2022-08-24T05:39:00.813Z,8.60
2022-08-24T05:41:33.204Z,8.00
2022-08-24T05:44:14.367Z,9.60
2022-08-24T05:46:47.717Z,8.90
2022-08-24T05:49:19.838Z,8.60
2022-08-24T05:51:51.990Z,8.80
2022-08-24T05:54:27.032Z,17.00
2022-08-24T05:57:05.273Z,9.10
2022-08-24T05:59:49.331Z,9.30
2022-08-24T06:02:23.801Z,8.10
2022-08-24T06:04:56.601Z,8.40
2022-08-24T06:07:28.755Z,8.40
2022-08-24T06:10:20.281Z,9.70
2022-08-24T06:12:54.119Z,10.20
2022-08-24T06:15:26.338Z,10.20
2022-08-24T06:17:58.827Z,9.00
2022-08-24T06:20:31.819Z,9.40
2022-08-24T06:23:04.034Z,9.70
2022-08-24T06:26:00.748Z,8.90
2022-08-24T06:28:33.830Z,8.90
2022-08-24T06:31:07.687Z,9.30
2022-08-24T06:33:39.913Z,7.80
2022-08-24T06:36:12.644Z,8.10
2022-08-24T06:38:45.420Z,8.70
2022-08-24T06:41:20.748Z,8.10
2022-08-24T06:43:53.178Z,8.30
2022-08-24T06:46:32.863Z,7.30
2022-08-24T06:49:05.866Z,7.80
2022-08-24T06:51:40.574Z,7.10
2022-08-24T06:54:13.412Z,7.20
2022-08-24T06:56:46.275Z,7.40
2022-08-24T06:59:19.185Z,7.70
2022-08-24T07:01:51.371Z,7.20
2022-08-24T07:04:28.002Z,7.10
2022-08-24T07:07:09.729Z,7.00
2022-08-24T07:09:42.740Z,7.70
2022-08-24T07:12:14.831Z,9.70
2022-08-24T07:14:47.318Z,8.20
2022-08-24T07:17:19.438Z,7.10
2022-08-24T07:19:51.973Z,7.10
2022-08-24T07:22:47.080Z,7.10
2022-08-24T07:25:19.988Z,7.70
2022-08-24T07:27:52.772Z,6.60
2022-08-24T07:30:27.644Z,7.60
2022-08-24T07:33:01.265Z,7.60
2022-08-24T07:35:34.903Z,7.20
2022-08-24T07:38:08.879Z,7.10
2022-08-24T07:41:05.210Z,7.20
2022-08-24T07:43:33.621Z,7.60
2022-08-24T07:46:08.398Z,7.70
2022-08-24T07:48:41.995Z,7.10
2022-08-24T07:51:16.258Z,8.80
2022-08-24T07:53:53.880Z,9.90
2022-08-24T07:56:31.889Z,7.60
2022-08-24T07:59:08.697Z,7.30
2022-08-24T08:01:45.318Z,7.60
2022-08-24T08:04:22.019Z,7.20
2022-08-24T08:09:33.071Z,7.20
2022-08-24T08:12:06.616Z,7.30
2022-08-24T08:14:39.073Z,7.40
2022-08-24T08:17:11.196Z,7.80
2022-08-24T08:19:43.963Z,7.00
2022-08-24T08:22:33.630Z,7.90
2022-08-24T08:25:24.985Z,7.30
2022-08-24T08:28:04.265Z,7.20
2022-08-24T08:30:45.748Z,6.90
2022-08-24T08:33:19.122Z,6.40
2022-08-24T08:35:53.988Z,7.60
2022-08-24T08:38:27.333Z,7.40
2022-08-24T08:41:09.692Z,6.80
2022-08-24T08:43:48.499Z,6.50
2022-08-24T08:46:33.948Z,6.80
2022-08-24T08:49:44.204Z,6.90
2022-08-24T08:52:47.970Z,6.60
2022-08-24T08:55:31.912Z,6.70
2022-08-24T08:58:18.281Z,7.00
2022-08-24T09:01:04.748Z,6.10
2022-08-24T09:03:57.944Z,6.00
2022-08-24T09:07:03.226Z,6.80
2022-08-24T09:10:05.805Z,7.10
2022-08-24T09:12:55.855Z,7.70
2022-08-24T09:15:58.027Z,7.30
2022-08-24T09:18:45.040Z,8.80
2022-08-24T09:21:41.633Z,7.30
2022-08-24T09:24:37.362Z,6.40
2022-08-24T09:27:24.759Z,17.30
2022-08-24T09:30:09.896Z,7.40
2022-08-24T09:32:59.195Z,5.70
2022-08-24T09:35:49.514Z,6.70
2022-08-24T09:39:00.199Z,7.10
2022-08-24T09:42:15.438Z,6.80
2022-08-24T09:45:17.859Z,6.90
2022-08-24T09:48:16.035Z,7.10
2022-08-24T09:51:09.891Z,7.70
2022-08-24T09:54:07.671Z,7.00
2022-08-24T09:57:12.475Z,7.10
2022-08-24T10:00:08.270Z,7.00
2022-08-24T10:02:59.515Z,7.00
2022-08-24T10:05:44.956Z,6.90
2022-08-24T10:08:30.223Z,5.50
2022-08-24T10:11:14.810Z,6.60
2022-08-24T10:13:56.928Z,6.50
2022-08-24T10:16:40.138Z,5.60
2022-08-24T10:19:32.547Z,6.40
2022-08-24T10:22:17.283Z,5.50
2022-08-24T10:25:05.300Z,5.00
2022-08-24T10:27:47.905Z,5.30
2022-08-24T10:30:48.556Z,5.90
2022-08-24T10:33:25.572Z,5.90
2022-08-24T10:36:27.926Z,5.90
2022-08-24T10:39:40.736Z,6.00
2022-08-24T10:43:02.515Z,5.90
2022-08-24T10:45:57.081Z,5.80
2022-08-24T10:48:59.973Z,6.10
2022-08-24T10:51:50.394Z,6.40
2022-08-24T10:54:24.116Z,6.30
2022-08-24T10:57:02.651Z,6.80
2022-08-24T10:59:42.479Z,7.30
2022-08-24T11:02:34.806Z,7.20
2022-08-24T11:05:13.120Z,6.30
2022-08-24T11:07:59.419Z,7.30
2022-08-24T11:10:34.557Z,7.00
2022-08-24T11:13:24.456Z,8.20
2022-08-24T11:15:58.369Z,7.00
2022-08-24T11:18:50.416Z,7.50
2022-08-24T11:21:41.816Z,8.70
2022-08-24T11:24:27.603Z,8.00
2022-08-24T11:27:03.965Z,7.70
2022-08-24T11:30:00.799Z,8.20
2022-08-24T11:32:39.092Z,7.90
2022-08-24T11:35:21.146Z,7.60
2022-08-24T11:37:56.193Z,7.60
2022-08-24T11:40:35.107Z,8.50
2022-08-24T11:43:27.781Z,8.00
2022-08-24T11:46:14.836Z,8.60
2022-08-24T11:48:59.902Z,9.50
2022-08-24T11:51:42.261Z,8.80
2022-08-24T11:54:24.817Z,8.70
2022-08-24T11:57:09.148Z,7.70
2022-08-24T11:59:52.048Z,7.90
2022-08-24T12:02:32.824Z,8.00
2022-08-24T12:05:16.231Z,8.10
2022-08-24T12:07:59.692Z,8.60
2022-08-24T12:10:47.928Z,8.00
2022-08-24T12:13:33.761Z,8.90
2022-08-24T12:16:17.630Z,8.20
2022-08-24T12:18:56.818Z,8.20
2022-08-24T12:21:33.745Z,7.80
2022-08-24T12:24:10.367Z,8.70
2022-08-24T12:26:46.752Z,8.30
2022-08-24T12:29:31.716Z,8.70
2022-08-24T12:32:08.312Z,8.30
2022-08-24T12:34:50.058Z,8.20
2022-08-24T12:37:28.566Z,7.60
2022-08-24T12:40:08.861Z,9.30
2022-08-24T12:42:52.607Z,8.80
2022-08-24T12:45:26.773Z,7.70
2022-08-24T12:48:03.969Z,7.90
2022-08-24T12:50:49.631Z,7.80
2022-08-24T12:53:43.312Z,7.80
2022-08-24T12:57:02.634Z,8.00
2022-08-24T12:59:42.124Z,7.40
2022-08-24T13:05:23.948Z,8.80
2022-08-24T13:08:14.032Z,8.80
2022-08-24T13:10:54.809Z,8.20
2022-08-24T13:13:44.825Z,8.40
2022-08-24T13:16:51.107Z,8.90
2022-08-24T13:19:38.812Z,8.30
2022-08-24T13:22:48.312Z,7.70
2022-08-24T13:25:53.364Z,8.80
2022-08-24T13:28:39.251Z,9.00
2022-08-24T13:31:31.627Z,8.20
2022-08-24T13:34:41.511Z,8.10
2022-08-24T13:37:22.448Z,8.60
2022-08-24T13:40:15.103Z,7.60
2022-08-24T13:43:08.718Z,8.50
2022-08-24T13:45:47.458Z,7.90
2022-08-24T13:48:38.931Z,8.90
2022-08-24T13:51:36.475Z,8.10
2022-08-24T13:54:27.903Z,8.30
2022-08-24T13:57:13.868Z,8.10
2022-08-24T14:00:12.668Z,8.80
2022-08-24T14:03:06.661Z,8.90
2022-08-24T14:05:47.618Z,7.70
2022-08-24T14:08:32.061Z,8.40
2022-08-24T14:11:12.241Z,8.10
2022-08-24T14:14:01.977Z,8.50
2022-08-24T14:17:19.634Z,8.30
2022-08-24T14:20:04.626Z,8.10
2022-08-24T14:22:53.129Z,8.40
2022-08-24T14:25:30.404Z,10.00
2022-08-24T14:28:38.116Z,9.30
2022-08-24T14:31:21.495Z,9.40
2022-08-24T14:34:12.688Z,8.80
2022-08-24T14:36:57.286Z,9.40
2022-08-24T14:39:40.461Z,8.70
2022-08-24T14:42:23.149Z,10.80
2022-08-24T14:45:06.475Z,9.10
2022-08-24T14:47:52.394Z,9.50
2022-08-24T14:50:31.696Z,8.60
2022-08-24T14:53:24.081Z,9.40
2022-08-24T14:56:09.089Z,9.00
2022-08-24T14:58:51.007Z,9.30
2022-08-24T15:01:41.326Z,8.60
2022-08-24T15:04:38.466Z,8.40
2022-08-24T15:07:29.568Z,8.80
2022-08-24T15:10:04.469Z,9.20
2022-08-24T15:12:44.205Z,9.60
2022-08-24T15:15:28.461Z,9.00
2022-08-24T15:18:07.920Z,8.60
2022-08-24T15:21:01.125Z,9.80
2022-08-24T15:23:47.218Z,8.10
2022-08-24T15:26:28.804Z,9.40
2022-08-24T15:29:13.331Z,9.70
2022-08-24T15:31:56.091Z,9.70
2022-08-24T15:34:40.041Z,9.70
2022-08-24T15:37:12.676Z,10.00
2022-08-24T15:39:46.076Z,10.40
2022-08-24T15:42:19.303Z,9.90
2022-08-24T15:44:53.759Z,9.00
2022-08-24T15:47:31.310Z,10.30
2022-08-24T15:50:07.767Z,10.30
2022-08-24T15:52:57.777Z,9.90
2022-08-24T15:55:38.422Z,9.50
2022-08-24T15:58:33.621Z,9.40
2022-08-24T16:01:42.606Z,11.00
2022-08-24T16:04:41.159Z,9.80
2022-08-24T16:07:23.145Z,10.00
2022-08-24T16:10:09.939Z,10.40
2022-08-24T16:12:42.773Z,10.60
2022-08-24T16:15:19.378Z,9.50
2022-08-24T16:20:36.024Z,9.40
2022-08-24T16:23:11.869Z,9.50
2022-08-24T16:25:51.203Z,10.60
2022-08-24T16:28:39.135Z,8.80
2022-08-24T16:31:12.583Z,10.00
2022-08-24T16:33:49.118Z,10.50
2022-08-24T16:36:22.511Z,10.10
2022-08-24T16:38:55.119Z,9.30
2022-08-24T16:41:27.820Z,9.00
2022-08-24T16:44:01.480Z,9.80
2022-08-24T16:46:33.978Z,10.20
2022-08-24T16:49:08.716Z,10.30
2022-08-24T16:51:45.309Z,10.60
2022-08-24T16:54:19.908Z,8.30
2022-08-24T16:56:52.414Z,9.10
2022-08-24T16:59:28.841Z,9.10
2022-08-24T17:02:02.105Z,9.70
2022-08-24T17:04:34.619Z,9.70
2022-08-24T17:07:10.091Z,10.90
2022-08-24T17:09:57.656Z,9.20
2022-08-24T17:12:32.196Z,10.50
2022-08-24T17:15:05.200Z,9.60
2022-08-24T17:17:38.477Z,10.00
2022-08-24T17:20:12.377Z,8.90
2022-08-24T17:22:44.404Z,9.70
2022-08-24T17:25:16.583Z,9.70
2022-08-24T17:27:49.301Z,10.00
2022-08-24T17:30:23.542Z,9.70
2022-08-24T17:32:56.306Z,9.10
2022-08-24T17:35:31.703Z,9.10
2022-08-24T17:38:04.647Z,9.30
2022-08-24T17:40:37.882Z,10.40
2022-08-24T17:43:10.672Z,10.00
2022-08-24T17:45:43.510Z,10.30
2022-08-24T17:48:22.523Z,11.50
2022-08-24T17:50:54.888Z,9.80
2022-08-24T17:53:27.084Z,9.90
2022-08-24T17:55:59.338Z,11.20
2022-08-24T17:58:31.884Z,10.90
2022-08-24T18:01:04.153Z,11.00
2022-08-24T18:03:36.407Z,9.00
2022-08-24T18:06:09.046Z,10.00
2022-08-24T18:08:41.210Z,9.60
2022-08-24T18:11:13.308Z,9.40
2022-08-24T18:13:45.503Z,9.90
2022-08-24T18:16:22.219Z,10.10
2022-08-24T18:18:55.498Z,8.80
2022-08-24T18:21:27.573Z,9.40
2022-08-24T18:24:01.534Z,8.40
2022-08-24T18:26:34.130Z,7.70
2022-08-24T18:29:15.091Z,8.90
2022-08-24T18:31:48.091Z,9.20
2022-08-24T18:34:22.951Z,9.80
2022-08-24T18:36:55.869Z,8.10
2022-08-24T18:39:27.936Z,8.40
2022-08-24T18:42:02.521Z,7.30
2022-08-24T18:44:35.094Z,8.40
2022-08-24T18:47:08.069Z,9.00
2022-08-24T18:49:40.153Z,8.60
2022-08-24T18:52:16.607Z,8.10
2022-08-24T18:54:51.119Z,8.30
2022-08-24T18:57:23.486Z,9.50
2022-08-24T18:59:55.891Z,9.00
2022-08-24T19:02:34.267Z,7.90
2022-08-24T19:05:10.821Z,8.60
2022-08-24T19:10:18.865Z,8.70
2022-08-24T19:12:54.028Z,8.40
2022-08-24T19:15:30.894Z,8.30
2022-08-24T19:18:12.756Z,9.30
2022-08-24T19:20:48.522Z,8.70
2022-08-24T19:23:25.962Z,9.30
2022-08-24T19:26:00.473Z,8.20
2022-08-24T19:28:33.286Z,7.20
2022-08-24T19:31:08.901Z,7.40
2022-08-24T19:33:46.543Z,8.30
2022-08-24T19:36:23.508Z,7.60
2022-08-24T19:38:55.738Z,7.60
2022-08-24T19:41:36.895Z,7.50
2022-08-24T19:44:28.061Z,7.20
2022-08-24T19:47:00.351Z,6.70
2022-08-24T19:49:34.331Z,6.30
2022-08-24T19:52:07.693Z,6.60
2022-08-24T19:54:42.340Z,6.30
2022-08-24T19:57:46.310Z,5.80
2022-08-24T20:00:35.554Z,5.30
2022-08-24T20:03:08.681Z,4.70
2022-08-24T20:05:41.232Z,4.50
2022-08-24T20:08:14.336Z,5.50
2022-08-24T20:10:46.390Z,5.70
2022-08-24T20:13:18.793Z,4.70
2022-08-24T20:15:51.096Z,4.90
2022-08-24T20:18:27.863Z,4.40
2022-08-24T20:23:31.679Z,4.80
2022-08-24T20:26:06.805Z,4.40
2022-08-24T20:28:44.274Z,4.30
2022-08-24T20:31:17.818Z,4.90
2022-08-24T20:33:52.256Z,3.80
2022-08-24T20:36:28.729Z,3.90
2022-08-24T20:39:02.164Z,3.70
2022-08-24T20:41:35.710Z,3.90
2022-08-24T20:44:09.384Z,3.70
2022-08-24T20:46:46.552Z,4.30
2022-08-24T20:49:20.932Z,3.90
2022-08-24T20:51:52.990Z,4.50
2022-08-24T20:54:25.141Z,3.90
2022-08-24T20:56:57.358Z,4.00
2022-08-24T20:59:30.515Z,4.50
2022-08-24T21:02:03.162Z,3.70
2022-08-24T21:04:35.274Z,4.30
2022-08-24T21:07:10.509Z,4.20
2022-08-24T21:09:43.119Z,3.60
2022-08-24T21:12:15.757Z,4.30
2022-08-24T21:14:47.812Z,4.40
2022-08-24T21:17:25.460Z,4.20
2022-08-24T21:19:57.525Z,4.40
2022-08-24T21:22:29.713Z,4.30
2022-08-24T21:25:01.844Z,4.50
2022-08-24T21:27:35.303Z,4.70
2022-08-24T21:30:10.851Z,4.40
2022-08-24T21:33:00.379Z,5.00
2022-08-24T21:35:32.538Z,5.10
2022-08-24T21:38:05.723Z,4.90
2022-08-24T21:40:40.044Z,4.80
2022-08-24T21:43:14.619Z,4.30
2022-08-24T21:45:50.897Z,3.80
2022-08-24T21:48:23.002Z,5.00
2022-08-24T21:50:55.257Z,5.00
2022-08-24T21:53:28.687Z,4.40
2022-08-24T21:56:03.006Z,4.40
2022-08-24T21:58:35.141Z,4.70
2022-08-24T22:01:08.281Z,4.50
2022-08-24T22:03:40.515Z,4.40
2022-08-24T22:06:13.901Z,4.40
2022-08-24T22:08:46.293Z,4.60
2022-08-24T22:11:20.300Z,4.90
2022-08-24T22:13:52.551Z,4.20
2022-08-24T22:16:25.612Z,5.10
2022-08-24T22:18:57.763Z,4.40
2022-08-24T22:21:36.097Z,5.10
2022-08-24T22:24:09.308Z,4.60
2022-08-24T22:26:42.210Z,5.00
2022-08-24T22:29:14.346Z,4.80
2022-08-24T22:31:47.034Z,3.90
2022-08-24T22:34:20.821Z,4.00
2022-08-24T22:36:56.957Z,4.10
2022-08-24T22:39:29.039Z,4.30
2022-08-24T22:42:01.530Z,4.00
2022-08-24T22:44:34.042Z,4.20
2022-08-24T22:47:13.109Z,3.70
2022-08-24T22:49:47.476Z,4.10
2022-08-24T22:52:19.583Z,4.00
2022-08-24T22:54:51.689Z,3.70
2022-08-24T22:57:23.741Z,3.90
2022-08-24T22:59:55.806Z,3.80
2022-08-24T23:02:27.961Z,3.50
2022-08-24T23:05:00.016Z,3.40
2022-08-24T23:07:32.149Z,3.40
2022-08-24T23:10:04.852Z,3.60
2022-08-24T23:12:36.881Z,3.80
2022-08-24T23:15:10.935Z,3.90
2022-08-24T23:17:43.729Z,4.30
2022-08-24T23:20:15.876Z,3.80
2022-08-24T23:22:49.988Z,3.70
2022-08-24T23:25:22.233Z,3.20
2022-08-24T23:27:54.508Z,3.20
2022-08-24T23:30:26.732Z,3.30
2022-08-24T23:32:59.066Z,3.80
2022-08-24T23:35:31.430Z,3.70
2022-08-24T23:38:03.661Z,3.60
2022-08-24T23:40:35.856Z,3.90
2022-08-24T23:43:07.987Z,3.80
2022-08-24T23:45:41.779Z,3.70
2022-08-24T23:48:13.939Z,4.00
2022-08-24T23:50:48.951Z,3.60
2022-08-24T23:53:21.043Z,3.40
2022-08-24T23:55:54.173Z,3.90
2022-08-24T23:58:26.414Z,3.40
